Terminal Aerodrome Forecast
Issued by NWS Pueblo, CO

Home | Current Version | Previous Version | Text Only | Print | Product List | Glossary On
Versions: 1 2 3 4 5 6 7 8 9 10 11 12 13 14 15 16 17 18 19 20 21 22 23
681
FTUS45 KPUB 130520
TAFCOS
TAF
KCOS 130520Z 1306/1406 01006KT P6SM BKN200
     FM130900 04005KT P6SM SCT003 SCT200
     FM131500 15006KT P6SM SCT200
     FM131900 28010KT P6SM SCT200
     FM140100 34010KT P6SM BKN200=

USA.gov is the U.S. government's official web portal to all federal, state and local government web resources and services.